EHC03 EHLE-EHLE

Flight info

Callsign EHC03
Flight time N/A
Altitude 1200
Route AM661 AM630 ULPAT AM090 AM102 VP051 RD250 RD187 DCT EHLE
Aircraft EC30/L-SGRBY/L

Departure

Time 2026-04-25 20:25
Airport Lelystad Airport (EHLE)

Arrival

Time N/A
Airport Lelystad Airport (EHLE)
Time Latitude Longitude Altitude Speed Heading
2026-04-25 20:04 52.45320 5.51935 -10 ft 0 kts 50°
2026-04-25 20:20 52.45322 5.51937 -1 ft 3 kts
2026-04-25 20:21 52.45374 5.51942 3 ft 6 kts 347°
2026-04-25 20:21 52.45411 5.51911 3 ft 2 kts 321°
2026-04-25 20:21 52.45422 5.51898 -6 ft 1 kts 319°
2026-04-25 20:21 52.45423 5.51896 -10 ft 0 kts 317°
2026-04-25 20:24 52.45484 5.51818 7 ft 19 kts 354°
2026-04-25 20:24 52.45653 5.52062 40 ft 44 kts 42°
2026-04-25 20:24 52.45857 5.52438 133 ft 44 kts 40°
2026-04-25 20:24 52.46048 5.52809 276 ft 43 kts 45°
2026-04-25 20:25 52.46169 5.53032 428 ft 24 kts 43°
2026-04-25 20:25 52.46166 5.53067 436 ft 1 kts 354°
2026-04-25 20:25 52.46162 5.53075 704 ft 1 kts 12°
2026-04-25 20:25 52.46336 5.53055 634 ft 53 kts 343°
2026-04-25 20:26 52.46570 5.52553 551 ft 62 kts 321°
2026-04-25 20:26 52.46889 5.51998 487 ft 66 kts 320°
2026-04-25 20:26 52.46925 5.51188 441 ft 93 kts 250°
2026-04-25 20:26 52.46517 5.50392 609 ft 89 kts 224°
2026-04-25 20:27 52.45988 5.49807 753 ft 98 kts 217°
2026-04-25 20:27 52.45383 5.49174 777 ft 102 kts 215°
2026-04-25 20:27 52.44789 5.48559 937 ft 101 kts 219°
2026-04-25 20:27 52.44219 5.47897 999 ft 105 kts 219°
2026-04-25 20:28 52.43590 5.47213 991 ft 110 kts 215°
2026-04-25 20:28 52.42920 5.46568 999 ft 114 kts 214°
2026-04-25 20:28 52.42261 5.45815 993 ft 118 kts 218°
2026-04-25 20:28 52.41588 5.45067 991 ft 114 kts 214°
2026-04-25 20:29 52.41019 5.44214 991 ft 110 kts 240°
2026-04-25 20:29 52.40557 5.43222 999 ft 112 kts 233°
2026-04-25 20:29 52.39976 5.42208 1003 ft 130 kts 225°
2026-04-25 20:29 52.39252 5.41264 992 ft 136 kts 218°
2026-04-25 20:30 52.38606 5.40185 992 ft 132 kts 244°
2026-04-25 20:30 52.38403 5.38760 990 ft 127 kts 274°
2026-04-25 20:30 52.38506 5.37334 989 ft 126 kts 285°
2026-04-25 20:30 52.38716 5.35951 990 ft 125 kts 290°
2026-04-25 20:31 52.38965 5.34612 993 ft 125 kts 291°
2026-04-25 20:31 52.39236 5.33256 989 ft 124 kts 292°
2026-04-25 20:31 52.39517 5.31905 988 ft 124 kts 293°
2026-04-25 20:31 52.39799 5.30566 987 ft 126 kts 294°
2026-04-25 20:32 52.40090 5.29204 990 ft 129 kts 294°
2026-04-25 20:32 52.40387 5.27814 988 ft 130 kts 293°
2026-04-25 20:32 52.40681 5.26435 983 ft 127 kts 293°
2026-04-25 20:32 52.40973 5.25070 987 ft 128 kts 293°
2026-04-25 20:33 52.41272 5.23678 980 ft 129 kts 293°
2026-04-25 20:33 52.41553 5.22305 982 ft 126 kts 291°
2026-04-25 20:33 52.41734 5.20915 984 ft 127 kts 282°
2026-04-25 20:33 52.41766 5.20425 989 ft 128 kts 279°
2026-04-25 20:34 52.41735 5.17974 985 ft 129 kts 268°
2026-04-25 20:34 52.41621 5.16524 982 ft 129 kts 266°
2026-04-25 20:34 52.41484 5.15061 983 ft 130 kts 264°
2026-04-25 20:34 52.41388 5.14086 979 ft 130 kts 264°
2026-04-25 20:35 52.41197 5.12145 980 ft 130 kts 264°
2026-04-25 20:35 52.41051 5.10687 984 ft 130 kts 264°
2026-04-25 20:35 52.40954 5.09714 978 ft 130 kts 264°
2026-04-25 20:35 52.40724 5.08285 979 ft 134 kts 241°
2026-04-25 20:36 52.40035 5.07230 984 ft 136 kts 214°
2026-04-25 20:36 52.39207 5.06511 985 ft 137 kts 199°
2026-04-25 20:36 52.38338 5.06749 988 ft 128 kts 127°
2026-04-25 20:36 52.38336 5.07991 988 ft 114 kts 49°
2026-04-25 20:37 52.39001 5.08424 983 ft 115 kts 333°
2026-04-25 20:37 52.38955 5.07435 986 ft 114 kts 179°
2026-04-25 20:37 52.38137 5.07555 983 ft 125 kts 163°
2026-04-25 20:37 52.37351 5.08148 984 ft 125 kts 128°
2026-04-25 20:38 52.37072 5.09408 987 ft 118 kts 77°
2026-04-25 20:38 52.37523 5.10400 979 ft 112 kts 16°
2026-04-25 20:38 52.38252 5.10052 982 ft 117 kts 326°
2026-04-25 20:38 52.38858 5.09148 978 ft 119 kts 315°
2026-04-25 20:39 52.39333 5.08013 981 ft 124 kts 295°
2026-04-25 20:39 52.39305 5.06606 981 ft 133 kts 246°
2026-04-25 20:39 52.38623 5.05598 986 ft 135 kts 201°
2026-04-25 20:39 52.38018 5.05580 979 ft 133 kts 150°
2026-04-25 20:40 52.37590 5.07199 987 ft 120 kts 74°
2026-04-25 20:40 52.37805 5.08497 981 ft 117 kts 63°
2026-04-25 20:40 52.38237 5.09581 987 ft 114 kts 34°
2026-04-25 20:40 52.38975 5.09892 982 ft 115 kts 347°
2026-04-25 20:41 52.39506 5.08931 984 ft 125 kts 283°
2026-04-25 20:41 52.39194 5.07580 983 ft 135 kts 230°
2026-04-25 20:41 52.38513 5.06537 979 ft 135 kts 218°
2026-04-25 20:41 52.37717 5.05719 984 ft 135 kts 206°
2026-04-25 20:42 52.36814 5.05389 981 ft 135 kts 172°
2026-04-25 20:42 52.35986 5.06025 985 ft 131 kts 129°
2026-04-25 20:42 52.35539 5.07279 985 ft 128 kts 107°
2026-04-25 20:42 52.35285 5.08647 986 ft 124 kts 91°
2026-04-25 20:43 52.35371 5.10016 981 ft 119 kts 69°
2026-04-25 20:43 52.35681 5.11251 982 ft 115 kts 51°
2026-04-25 20:43 52.36366 5.11767 985 ft 113 kts
2026-04-25 20:43 52.37148 5.11742 982 ft 114 kts 352°
2026-04-25 20:44 52.37921 5.11422 978 ft 116 kts 340°
2026-04-25 20:44 52.38565 5.10676 1046 ft 115 kts 317°
2026-04-25 20:44 52.39078 5.09599 1005 ft 123 kts 305°
2026-04-25 20:44 52.39448 5.08348 992 ft 125 kts 293°
2026-04-25 20:45 52.39657 5.06955 986 ft 127 kts 281°
2026-04-25 20:45 52.39673 5.05503 982 ft 130 kts 262°